Time;durP1;ratioP1;P1;durP2;ratioP2;P2;SDS_P1;SDS_P2;PMS_P1;PMS_P2;Temp;Humidity;BMP_temperature;BMP_pressure;BME280_temperature;BME280_humidity;BME280_pressure;Samples;Min_cycle;Max_cycle;Signal;HPM_P1;HPM_P2
2022/01/04 00:00:26;;;;;;;8.47;2.57;;;;;;;12.20;55.48;98853.28;4931089;29;20215;-90
2022/01/04 00:02:52;;;;;;;7.57;2.40;;;;;;;12.06;56.00;98837.53;4918028;29;20193;-89
2022/01/04 00:05:19;;;;;;;5.93;2.23;;;;;;;12.04;56.00;98849.06;4917020;29;20690;-90
2022/01/04 00:07:46;;;;;;;6.37;2.00;;;;;;;11.89;56.08;98852.66;4917804;29;20296;-90
2022/01/04 00:10:19;;;;;;;5.10;2.40;;;;;;;12.15;56.09;98851.88;4918160;29;20590;-91
2022/01/04 00:15:32;;;;;;;3.27;1.63;;;;;;;12.20;55.28;98849.78;4934023;29;20246;-92
2022/01/04 00:18:00;;;;;;;5.30;1.77;;;;;;;12.18;55.02;98843.81;4936397;29;20190;-91
2022/01/04 00:20:27;;;;;;;5.13;1.50;;;;;;;12.27;54.67;98851.94;4936489;29;20178;-90
2022/01/04 00:23:15;;;;;;;5.30;1.73;;;;;;;12.16;54.83;98853.53;4927434;29;20187;-90
2022/01/04 00:25:42;;;;;;;3.83;1.70;;;;;;;12.26;54.56;98844.16;4923946;29;20647;-90
2022/01/04 00:28:10;;;;;;;3.43;1.00;;;;;;;12.29;54.24;98833.41;4917634;29;20172;-91
2022/01/04 00:30:40;;;;;;;2.60;1.57;;;;;;;12.38;53.38;98850.38;4929465;29;20699;-93
2022/01/04 00:33:12;;;;;;;3.87;0.90;;;;;;;12.30;53.72;98856.16;4917344;29;20275;-91
2022/01/04 00:36:00;;;;;;;1.67;0.80;;;;;;;12.23;53.63;98849.59;4931967;29;20198;-91
2022/01/04 00:38:32;;;;;;;7.20;1.40;;;;;;;12.29;53.47;98854.44;4934264;29;20201;-90
2022/01/04 00:41:00;;;;;;;2.70;1.33;;;;;;;12.48;52.90;98846.22;4917422;29;20189;-92
2022/01/04 00:43:47;;;;;;;1.77;0.80;;;;;;;12.38;52.81;98850.38;4916587;29;20185;-92
2022/01/04 00:46:17;;;;;;;2.03;0.93;;;;;;;12.48;52.74;98847.06;4931694;29;20222;-92
2022/01/04 00:51:30;;;;;;;1.53;1.03;;;;;;;12.54;52.38;98844.06;4936260;29;20182;-89
2022/01/04 00:53:57;;;;;;;0.87;0.50;;;;;;;12.51;52.16;98838.16;4931618;29;20185;-90
2022/01/04 00:56:24;;;;;;;2.43;0.80;;;;;;;12.40;52.27;98844.09;4923829;29;20177;-92
2022/01/04 00:58:51;;;;;;;3.27;1.23;;;;;;;12.45;51.56;98849.06;4935459;29;20190;-90
2022/01/04 01:01:18;;;;;;;2.30;0.93;;;;;;;12.59;51.81;98849.84;4935274;29;20199;-90
2022/01/04 01:03:47;;;;;;;2.30;1.20;;;;;;;12.51;51.97;98859.16;4935688;29;20202;-90
2022/01/04 01:06:14;;;;;;;3.13;1.20;;;;;;;12.61;51.55;98855.00;4919038;29;20214;-90
2022/01/04 01:09:09;;;;;;;3.03;1.13;;;;;;;12.69;51.40;98856.19;4915596;29;20651;-91
2022/01/04 01:11:39;;;;;;;2.67;1.03;;;;;;;12.79;50.98;98852.00;4920609;29;20204;-92
2022/01/04 01:14:09;;;;;;;2.73;0.97;;;;;;;12.59;51.31;98841.97;4938444;29;20190;-92
2022/01/04 01:16:39;;;;;;;4.97;2.07;;;;;;;12.74;50.96;98856.72;4935862;29;20254;-89
2022/01/04 01:19:06;;;;;;;1.33;0.70;;;;;;;12.86;50.57;98861.19;4934501;29;20209;-90
2022/01/04 01:21:38;;;;;;;2.23;1.10;;;;;;;12.86;50.07;98865.63;4939854;29;20670;-91
2022/01/04 01:24:05;;;;;;;3.33;0.90;;;;;;;12.87;50.06;98872.53;4933319;29;20189;-90
2022/01/04 01:26:32;;;;;;;0.73;0.50;;;;;;;12.95;49.96;98876.38;4934330;29;20303;-90
2022/01/04 01:28:59;;;;;;;1.97;0.80;;;;;;;12.99;49.76;98874.38;4934519;29;20188;-91
2022/01/04 01:31:27;;;;;;;2.50;1.13;;;;;;;12.90;49.91;98877.59;4935044;29;20243;-90
2022/01/04 01:33:54;;;;;;;1.33;0.90;;;;;;;12.99;50.01;98870.91;4935918;29;20211;-91
2022/01/04 01:36:26;;;;;;;2.57;1.00;;;;;;;13.04;49.42;98871.44;4919026;29;20272;-90
2022/01/04 01:38:53;;;;;;;4.93;0.93;;;;;;;13.01;49.78;98866.38;4918584;29;20571;-90
2022/01/04 01:41:20;;;;;;;2.73;1.10;;;;;;;13.01;49.33;98861.09;4934007;29;20279;-90
2022/01/04 01:43:47;;;;;;;1.43;0.80;;;;;;;13.06;48.81;98859.84;4928026;29;20184;-93
2022/01/04 01:46:14;;;;;;;1.83;0.60;;;;;;;13.14;49.14;98856.75;4899892;29;20510;-91
2022/01/04 01:48:42;;;;;;;2.10;1.07;;;;;;;13.10;49.31;98857.91;4917939;29;20183;-91
2022/01/04 01:51:08;;;;;;;4.23;1.20;;;;;;;13.19;48.78;98846.75;4934504;29;20183;-90
2022/01/04 01:53:36;;;;;;;2.97;1.07;;;;;;;13.02;48.88;98847.88;4935643;29;20635;-90
2022/01/04 01:56:03;;;;;;;1.90;0.83;;;;;;;13.01;48.71;98843.53;4929608;29;20175;-89
2022/01/04 01:58:32;;;;;;;2.43;1.00;;;;;;;13.00;48.96;98841.03;4923059;29;20662;-89
2022/01/04 02:00:59;;;;;;;2.10;1.10;;;;;;;13.01;48.48;98842.69;4899895;29;20196;-89
2022/01/04 02:03:26;;;;;;;6.40;0.80;;;;;;;12.99;48.92;98834.06;4920253;29;20187;-90
2022/01/04 02:05:53;;;;;;;2.33;1.00;;;;;;;13.02;48.30;98826.81;4934835;29;20219;-90
2022/01/04 02:08:21;;;;;;;1.07;0.70;;;;;;;13.14;48.52;98820.75;4934462;29;20276;-90
2022/01/04 02:10:51;;;;;;;1.50;0.83;;;;;;;13.23;48.22;98828.00;4917464;29;20658;-90
2022/01/04 02:13:17;;;;;;;1.73;0.90;;;;;;;13.39;47.66;98814.66;4923314;29;20197;-90
2022/01/04 02:15:44;;;;;;;1.57;1.10;;;;;;;13.62;47.45;98820.97;4918527;29;20271;-90
2022/01/04 02:18:10;;;;;;;3.40;1.00;;;;;;;13.72;46.90;98824.63;4904014;29;20631;-90
2022/01/04 02:20:37;;;;;;;5.07;1.17;;;;;;;13.66;46.46;98825.03;4912629;29;20531;-90
2022/01/04 02:23:04;;;;;;;1.43;0.67;;;;;;;13.67;46.38;98816.22;4916537;29;20184;-90
2022/01/04 02:25:30;;;;;;;2.30;0.77;;;;;;;13.50;46.48;98820.00;4902683;29;20664;-91
2022/01/04 02:27:57;;;;;;;1.97;0.87;;;;;;;13.63;46.57;98820.84;4918882;29;20265;-90
2022/01/04 02:30:23;;;;;;;3.33;1.37;;;;;;;13.66;46.77;98836.44;4921743;29;20269;-91
2022/01/04 02:32:49;;;;;;;2.10;1.17;;;;;;;13.67;46.60;98832.84;4938489;29;20661;-90
2022/01/04 02:35:23;;;;;;;1.73;0.63;;;;;;;13.69;46.93;98841.50;4937780;29;20191;-90
2022/01/04 02:38:01;;;;;;;1.63;0.80;;;;;;;13.63;46.83;98847.16;4938731;29;20246;-90
2022/01/04 02:40:28;;;;;;;2.70;1.00;;;;;;;13.58;47.32;98844.00;4935998;29;20202;-90
2022/01/04 02:42:54;;;;;;;2.63;1.13;;;;;;;13.39;47.42;98852.34;4948938;29;20718;-90
2022/01/04 02:45:22;;;;;;;7.17;1.63;;;;;;;13.14;48.28;98864.63;4944512;29;20701;-91
2022/01/04 02:47:49;;;;;;;4.20;1.20;;;;;;;12.75;49.98;98871.59;4940420;29;20217;-89
2022/01/04 02:50:16;;;;;;;5.03;1.70;;;;;;;12.39;51.14;98865.22;4944698;29;20249;-90
2022/01/04 02:52:42;;;;;;;4.63;1.53;;;;;;;12.36;51.06;98860.16;4938824;29;20272;-91
2022/01/04 02:55:13;;;;;;;3.57;1.37;;;;;;;12.31;51.54;98857.84;4937999;29;20192;-90
2022/01/04 02:57:41;;;;;;;2.80;1.07;;;;;;;12.15;51.75;98857.13;4945371;29;20527;-90
2022/01/04 03:00:12;;;;;;;3.57;1.03;;;;;;;12.06;51.85;98865.56;4931512;29;20186;-91
2022/01/04 03:02:40;;;;;;;2.47;1.37;;;;;;;11.79;52.80;98872.56;4940944;29;20185;-89
2022/01/04 03:05:08;;;;;;;2.97;1.43;;;;;;;11.85;52.90;98872.16;4957179;29;20181;-89
2022/01/04 03:07:35;;;;;;;5.60;1.67;;;;;;;11.91;52.71;98869.16;4957190;29;20560;-90
2022/01/04 03:10:04;;;;;;;3.17;1.60;;;;;;;11.96;52.45;98869.72;4957294;29;20609;-90
2022/01/04 03:12:35;;;;;;;3.17;1.40;;;;;;;11.92;52.75;98865.59;4952330;29;20181;-89
2022/01/04 03:15:03;;;;;;;3.97;1.80;;;;;;;11.88;52.42;98874.59;4945260;29;20173;-91
2022/01/04 03:17:29;;;;;;;4.80;1.43;;;;;;;11.91;51.94;98870.00;4957453;29;20185;-90
2022/01/04 03:19:56;;;;;;;2.43;0.93;;;;;;;11.87;52.35;98860.63;4957443;29;20244;-90
2022/01/04 03:22:23;;;;;;;4.07;1.23;;;;;;;11.89;52.57;98865.78;4937688;29;20276;-90
2022/01/04 03:24:50;;;;;;;2.33;1.20;;;;;;;11.96;51.88;98874.97;4938254;29;20209;-90
2022/01/04 03:27:17;;;;;;;2.77;1.43;;;;;;;11.94;52.00;98871.59;4941749;29;20275;-90
2022/01/04 03:29:44;;;;;;;3.07;1.27;;;;;;;11.94;52.01;98869.81;4956327;29;20637;-90
2022/01/04 03:32:11;;;;;;;3.60;1.30;;;;;;;11.58;53.32;98877.31;4955765;29;20304;-91
2022/01/04 03:34:38;;;;;;;4.27;1.67;;;;;;;11.66;53.07;98880.31;4955383;28;20181;-90
2022/01/04 03:37:05;;;;;;;2.97;1.50;;;;;;;11.59;53.57;98892.97;4953815;29;20188;-91
2022/01/04 03:39:31;;;;;;;5.83;2.37;;;;;;;11.32;54.36;98891.16;4920690;29;20178;-91
2022/01/04 03:41:58;;;;;;;3.97;1.80;;;;;;;11.10;55.96;98897.66;4921162;29;20182;-91
2022/01/04 03:44:26;;;;;;;8.67;1.83;;;;;;;10.94;56.57;98903.88;4955479;29;20267;-90
2022/01/04 03:46:55;;;;;;;3.73;2.03;;;;;;;10.70;57.45;98897.41;4937175;29;20321;-90
2022/01/04 03:49:22;;;;;;;7.70;2.63;;;;;;;10.59;58.06;98886.69;4937480;29;20193;-90
2022/01/04 03:51:49;;;;;;;4.10;1.90;;;;;;;10.59;58.04;98889.28;4937410;29;20666;-90
2022/01/04 03:54:16;;;;;;;4.47;2.10;;;;;;;10.44;58.85;98889.25;4937263;29;20185;-91
2022/01/04 03:56:43;;;;;;;9.83;2.10;;;;;;;10.18;59.80;98895.09;4937148;29;20585;-91
2022/01/04 03:59:10;;;;;;;5.77;3.03;;;;;;;9.55;63.40;98903.72;4937537;29;20188;-90
2022/01/04 04:01:37;;;;;;;6.73;1.93;;;;;;;9.55;63.20;98906.34;4936191;29;20250;-91
2022/01/04 04:04:04;;;;;;;4.67;1.73;;;;;;;9.66;63.05;98906.63;4937169;29;20218;-90
2022/01/04 04:06:30;;;;;;;5.30;1.97;;;;;;;9.65;62.97;98908.38;4919883;29;20216;-90
2022/01/04 04:08:57;;;;;;;3.60;1.57;;;;;;;9.84;62.17;98903.03;4937169;29;20244;-90
2022/01/04 04:11:25;;;;;;;5.23;1.93;;;;;;;9.81;62.46;98903.19;4948211;29;20632;-90
2022/01/04 04:13:51;;;;;;;5.27;1.93;;;;;;;9.87;62.04;98911.56;4943547;29;20181;-90
2022/01/04 04:16:18;;;;;;;7.03;2.57;;;;;;;9.56;63.04;98915.88;4935569;29;20489;-89
2022/01/04 04:18:45;;;;;;;7.17;2.97;;;;;;;9.54;63.30;98922.97;4936892;29;20210;-90
2022/01/04 04:21:12;;;;;;;5.37;1.90;;;;;;;9.82;62.90;98924.06;4946047;29;20645;-90
2022/01/04 04:23:39;;;;;;;3.70;2.27;;;;;;;9.93;61.86;98923.50;4955630;29;20718;-91
2022/01/04 04:26:07;;;;;;;4.73;1.77;;;;;;;9.98;61.51;98933.72;4956480;29;20205;-91
2022/01/04 04:28:34;;;;;;;7.97;2.63;;;;;;;9.99;60.98;98932.78;4945904;29;20202;-90
2022/01/04 04:31:01;;;;;;;5.97;2.67;;;;;;;10.00;60.83;98948.41;4953857;29;20275;-90
2022/01/04 04:33:28;;;;;;;7.37;2.47;;;;;;;9.96;61.02;98956.53;4954751;29;20190;-90
2022/01/04 04:35:55;;;;;;;3.77;1.70;;;;;;;9.98;60.70;98955.50;4956014;29;20604;-91
2022/01/04 04:38:22;;;;;;;9.37;2.20;;;;;;;10.04;60.87;98963.03;4948939;29;20554;-90
2022/01/04 04:40:49;;;;;;;6.97;2.07;;;;;;;9.89;60.61;98956.00;4938204;29;20578;-90
2022/01/04 04:43:16;;;;;;;6.00;2.07;;;;;;;9.93;60.22;98957.53;4940712;29;20184;-90
2022/01/04 04:45:43;;;;;;;4.33;1.67;;;;;;;9.70;60.40;98956.09;4954634;29;20189;-89
2022/01/04 04:48:09;;;;;;;2.97;1.77;;;;;;;9.66;60.89;98958.97;4938179;29;20199;-89
2022/01/04 04:50:36;;;;;;;5.77;2.57;;;;;;;9.51;61.29;98959.75;4954924;29;20192;-91
2022/01/04 04:53:03;;;;;;;3.90;1.80;;;;;;;9.31;62.59;98958.13;4955397;29;20254;-90
2022/01/04 04:55:30;;;;;;;4.27;1.83;;;;;;;9.17;63.28;98958.00;4956175;29;20261;-91
2022/01/04 04:57:57;;;;;;;4.20;2.17;;;;;;;9.18;63.63;98947.44;4953442;29;20176;-90
2022/01/04 05:00:24;;;;;;;6.37;2.23;;;;;;;9.22;62.65;98951.59;4936590;29;20189;-91
2022/01/04 05:02:51;;;;;;;4.30;2.07;;;;;;;9.32;62.44;98948.53;4936323;29;20194;-90
2022/01/04 05:05:17;;;;;;;4.83;2.13;;;;;;;9.30;62.25;98945.16;4935985;29;20183;-90
2022/01/04 05:07:44;;;;;;;4.30;1.50;;;;;;;9.18;62.78;98936.97;4936377;29;20199;-90
2022/01/04 05:10:11;;;;;;;9.40;3.20;;;;;;;9.22;62.28;98943.75;4935827;29;20182;-90
2022/01/04 05:12:37;;;;;;;6.33;2.57;;;;;;;9.25;62.55;98948.81;4936076;29;20548;-91
2022/01/04 05:15:05;;;;;;;4.10;2.00;;;;;;;8.92;64.39;98958.34;4969241;28;20186;-90
2022/01/04 05:17:31;;;;;;;5.90;2.30;;;;;;;8.52;66.33;98972.44;4974203;28;20620;-89
2022/01/04 05:20:03;;;;;;;5.63;1.70;;;;;;;8.70;65.67;98962.88;4974267;28;20260;-91
2022/01/04 05:22:30;;;;;;;3.30;1.73;;;;;;;8.42;66.35;98965.13;4953424;29;20606;-89
2022/01/04 05:24:56;;;;;;;6.13;2.13;;;;;;;8.39;66.57;98963.50;4954865;29;20201;-91
2022/01/04 05:27:23;;;;;;;6.77;2.73;;;;;;;8.62;65.76;98972.88;4937740;29;20672;-90
2022/01/04 05:29:50;;;;;;;8.77;3.00;;;;;;;8.74;65.33;98961.84;4935007;29;20203;-91
2022/01/04 05:32:16;;;;;;;10.23;2.67;;;;;;;8.74;65.06;98985.34;4953654;29;20252;-90
2022/01/04 05:34:46;;;;;;;7.63;3.20;;;;;;;8.66;65.98;98984.88;4955151;29;20187;-91
2022/01/04 05:37:13;;;;;;;6.77;3.37;;;;;;;8.58;65.78;98993.06;4937198;29;20181;-91
2022/01/04 05:39:40;;;;;;;10.57;1.60;;;;;;;8.74;65.98;98997.56;4918858;29;20189;-90
2022/01/04 05:42:12;;;;;;;7.60;2.23;;;;;;;8.35;67.61;98995.06;4920113;29;20265;-91
2022/01/04 05:44:39;;;;;;;4.77;1.97;;;;;;;8.26;69.56;99001.50;4935942;29;20177;-89
2022/01/04 05:47:06;;;;;;;4.17;2.10;;;;;;;8.54;68.00;98998.53;4935599;29;20217;-90
2022/01/04 05:49:33;;;;;;;4.73;2.07;;;;;;;8.55;66.71;98998.44;4936443;29;20182;-90
2022/01/04 05:52:00;;;;;;;3.53;1.90;;;;;;;8.68;66.97;98993.47;4935502;29;20253;-89
2022/01/04 05:54:27;;;;;;;4.43;1.87;;;;;;;8.66;66.40;98995.31;4935693;29;20592;-89
2022/01/04 05:56:54;;;;;;;4.57;2.00;;;;;;;8.75;65.66;99000.13;4935462;29;20210;-90
2022/01/04 05:59:20;;;;;;;8.87;3.70;;;;;;;8.81;65.27;98997.22;4949846;29;20199;-91
2022/01/04 06:01:47;;;;;;;8.87;3.87;;;;;;;8.80;66.09;99007.75;4942973;29;20181;-90
2022/01/04 06:04:14;;;;;;;10.03;4.50;;;;;;;8.81;65.82;99010.28;4941802;29;20565;-90
2022/01/04 06:06:41;;;;;;;17.27;5.40;;;;;;;8.46;68.27;99014.53;4958030;29;20284;-90
2022/01/04 06:09:18;;;;;;;18.00;5.03;;;;;;;8.38;70.02;99010.59;4958407;29;20173;-90
2022/01/04 06:17:05;;;;;;;13.17;5.90;;;;;;;8.76;68.89;99009.66;4957935;29;20204;-90
2022/01/04 06:19:32;;;;;;;9.93;4.43;;;;;;;8.90;67.69;99014.22;4953054;29;20213;-90
2022/01/04 06:21:58;;;;;;;11.40;5.63;;;;;;;8.92;67.57;99002.78;4938797;29;20181;-90
2022/01/04 06:24:25;;;;;;;25.33;6.07;;;;;;;9.00;68.23;99021.56;4957565;29;20192;-90
2022/01/04 06:26:52;;;;;;;13.53;6.33;;;;;;;8.96;69.14;99020.00;4950190;29;20210;-90
2022/01/04 06:29:22;;;;;;;16.30;6.70;;;;;;;9.15;69.48;99015.56;4937843;29;20185;-90
2022/01/04 06:31:48;;;;;;;18.00;7.50;;;;;;;9.18;68.54;99015.44;4938625;29;20265;-91
2022/01/04 06:34:15;;;;;;;12.53;6.57;;;;;;;9.36;68.34;99015.44;4938565;29;20202;-91
2022/01/04 06:36:42;;;;;;;19.13;6.90;;;;;;;9.59;68.33;99007.31;4938829;29;20178;-90
2022/01/04 06:39:08;;;;;;;22.60;7.83;;;;;;;9.71;67.00;98998.81;4922601;29;20624;-91
2022/01/04 06:41:35;;;;;;;15.90;7.03;;;;;;;9.90;66.82;99002.19;4948125;29;20189;-90
2022/01/04 06:44:01;;;;;;;14.13;5.63;;;;;;;10.18;66.55;99012.09;4942901;29;20189;-90
2022/01/04 06:46:29;;;;;;;15.53;6.73;;;;;;;10.43;66.17;99012.47;4956821;29;20235;-89
2022/01/04 06:48:55;;;;;;;16.30;6.37;;;;;;;10.84;64.85;99010.22;4955710;29;20185;-91
2022/01/04 06:51:22;;;;;;;22.23;7.93;;;;;;;11.18;63.14;99002.16;4939544;29;20240;-90
2022/01/04 06:53:49;;;;;;;14.10;6.13;;;;;;;11.13;62.94;99014.69;4953987;29;20285;-91
2022/01/04 06:56:15;;;;;;;10.50;4.83;;;;;;;11.29;62.44;99018.13;4957121;29;20182;-90
2022/01/04 06:58:42;;;;;;;13.93;5.90;;;;;;;11.55;62.18;99020.09;4938485;29;20182;-90
2022/01/04 07:01:09;;;;;;;15.30;7.03;;;;;;;11.74;61.04;99024.28;4937238;29;20189;-91
2022/01/04 07:03:36;;;;;;;18.27;8.63;;;;;;;11.67;60.39;99029.84;4938134;29;20190;-90
2022/01/04 07:06:04;;;;;;;27.37;13.63;;;;;;;11.69;59.25;99033.25;4942581;29;20205;-90
2022/01/04 07:08:31;;;;;;;34.73;15.97;;;;;;;11.79;59.20;99038.00;4956602;29;20224;-90
2022/01/04 07:10:58;;;;;;;44.00;16.57;;;;;;;11.81;58.07;99042.22;4957418;28;20181;-91
2022/01/04 07:13:25;;;;;;;32.37;15.70;;;;;;;11.95;57.03;99041.41;4923900;29;20186;-91
2022/01/04 07:15:51;;;;;;;39.73;17.90;;;;;;;12.08;56.84;99039.72;4938105;29;20186;-90
2022/01/04 07:18:18;;;;;;;35.23;14.80;;;;;;;12.14;56.07;99041.97;4952211;29;20243;-91
2022/01/04 07:20:45;;;;;;;41.17;15.20;;;;;;;12.01;55.51;99041.00;4956377;29;20704;-91
2022/01/04 07:23:11;;;;;;;35.73;14.63;;;;;;;12.00;56.34;99047.22;4943734;29;20264;-90
2022/01/04 07:25:38;;;;;;;29.60;12.47;;;;;;;11.98;56.44;99039.41;4936681;29;20193;-90
2022/01/04 07:28:05;;;;;;;32.53;14.50;;;;;;;11.92;56.33;99038.97;4949258;29;20177;-91
2022/01/04 07:30:31;;;;;;;29.73;14.03;;;;;;;11.90;56.48;99041.66;4943075;29;20190;-90
2022/01/04 07:32:58;;;;;;;24.50;14.20;;;;;;;11.88;56.97;99042.69;4936458;29;20233;-90
2022/01/04 07:35:25;;;;;;;33.37;12.90;;;;;;;11.85;57.27;99033.22;4937685;29;20268;-90
2022/01/04 07:37:52;;;;;;;33.07;14.83;;;;;;;11.93;57.04;99032.75;4938324;29;20237;-90
2022/01/04 07:40:20;;;;;;;29.73;12.57;;;;;;;11.98;56.89;99031.53;4921084;29;20641;-90
2022/01/04 07:42:48;;;;;;;24.53;11.80;;;;;;;11.98;57.00;99033.31;4921234;29;20204;-91
2022/01/04 07:45:15;;;;;;;33.17;12.33;;;;;;;11.95;57.10;99034.34;4945324;29;20526;-91
2022/01/04 07:47:42;;;;;;;27.50;11.00;;;;;;;12.03;57.67;99037.34;4945396;29;20210;-91
2022/01/04 07:50:11;;;;;;;32.77;13.17;;;;;;;12.03;58.16;99036.50;4924353;29;20188;-91
2022/01/04 07:52:38;;;;;;;23.30;10.73;;;;;;;12.09;57.91;99030.91;4936964;29;20269;-90
2022/01/04 07:55:05;;;;;;;23.30;10.87;;;;;;;12.18;57.98;99033.84;4955997;29;20188;-90
2022/01/04 07:57:32;;;;;;;29.10;11.40;;;;;;;12.22;58.24;99034.47;4956001;29;20239;-90
2022/01/04 07:59:59;;;;;;;24.53;11.53;;;;;;;12.27;58.55;99024.53;4946277;29;20186;-91
2022/01/04 08:02:26;;;;;;;28.60;12.37;;;;;;;12.40;58.17;99028.09;4955657;28;20177;-91
2022/01/04 08:04:53;;;;;;;24.57;12.30;;;;;;;12.45;58.47;99020.75;4952577;29;20190;-90
2022/01/04 08:07:19;;;;;;;41.47;15.90;;;;;;;12.53;58.39;99031.66;4936237;29;20241;-90
2022/01/04 08:09:46;;;;;;;43.63;17.90;;;;;;;12.60;58.82;99011.09;4920017;29;20181;-90
2022/01/04 08:12:13;;;;;;;27.07;11.43;;;;;;;12.69;58.44;99015.75;4924717;28;20182;-90
2022/01/04 08:14:40;;;;;;;30.80;12.83;;;;;;;12.73;59.70;99015.50;4971927;28;20276;-91
2022/01/04 08:17:07;;;;;;;25.93;11.13;;;;;;;12.72;59.78;99015.56;4944434;29;20205;-89
2022/01/04 08:19:36;;;;;;;33.23;13.77;;;;;;;12.80;59.50;99008.88;4952998;29;20628;-90
2022/01/04 08:22:03;;;;;;;37.50;15.50;;;;;;;12.87;59.29;98998.81;4940855;29;20218;-92
2022/01/04 08:24:30;;;;;;;45.50;17.60;;;;;;;12.95;59.20;98991.25;4955927;29;20175;-90
2022/01/04 08:27:00;;;;;;;51.50;19.90;;;;;;;13.08;59.65;98992.19;4954821;29;20209;-90
2022/01/04 08:29:27;;;;;;;29.90;14.93;;;;;;;13.17;59.21;98993.38;4955365;29;20540;-90
2022/01/04 08:31:53;;;;;;;33.93;15.93;;;;;;;13.35;59.14;98989.56;4947098;29;20181;-90
2022/01/04 08:34:18;;;;;;;33.93;14.10;;;;;;;13.28;59.33;98988.28;4945381;29;20181;-90
2022/01/04 08:36:49;;;;;;;24.57;13.03;;;;;;;13.33;59.69;98988.81;4952618;28;20178;-92
2022/01/04 08:39:15;;;;;;;23.30;10.87;;;;;;;13.39;58.34;98991.06;4931271;29;20249;-90
2022/01/04 08:41:42;;;;;;;31.43;13.77;;;;;;;13.38;57.74;98984.09;4939677;29;20291;-91
2022/01/04 08:44:21;;;;;;;;;;;;;;;;;;;;;
2022/01/04 08:46:48;;;;;;;19.83;11.17;;;;;;;13.24;58.73;98989.41;4947451;29;20222;-90
2022/01/04 08:49:22;;;;;;;24.17;10.13;;;;;;;13.54;58.62;98982.13;4935573;29;20284;-91
2022/01/04 08:51:48;;;;;;;19.90;9.47;;;;;;;13.71;59.12;98970.44;4937297;29;20571;-91
2022/01/04 08:54:18;;;;;;;19.17;8.93;;;;;;;13.89;58.50;98975.28;4949757;29;20173;-90
2022/01/04 08:57:21;;;;;;;;;;;;;;;;;;;;;
2022/01/04 09:00:28;;;;;;;16.57;8.33;;;;;;;14.15;56.15;98981.41;4954347;29;20203;-90
2022/01/04 09:02:59;;;;;;;11.43;6.47;;;;;;;14.26;55.98;98973.59;4936074;29;20188;-90
2022/01/04 09:06:00;;;;;;;;;;;;;;;;;;;;;
2022/01/04 09:08:47;;;;;;;15.70;4.90;;;;;;;14.48;54.92;98971.19;4940812;29;20559;-91
2022/01/04 09:11:29;;;;;;;16.00;5.50;;;;;;;14.58;54.29;98966.06;4919310;29;20273;-91
2022/01/04 09:21:22;;;;;;;;;;;;;;;;;;;;;
2022/01/04 09:24:00;;;;;;;6.37;3.37;;;;;;;15.17;53.20;98961.75;4939649;28;20197;-91
2022/01/04 09:26:58;;;;;;;6.50;3.17;;;;;;;15.45;51.60;98960.50;4935301;29;20579;-92
2022/01/04 09:30:25;;;;;;;8.70;3.90;;;;;;;15.50;51.36;98947.84;4946882;29;20214;-91
2022/01/04 09:33:18;;;;;;;7.70;3.33;;;;;;;15.58;50.46;98954.22;4941779;28;20243;-92
2022/01/04 09:36:23;;;;;;;6.43;3.03;;;;;;;15.58;50.23;98948.94;4876295;29;20431;-90
2022/01/04 09:39:09;;;;;;;;;;;;;;;;;;;;;
2022/01/04 09:41:35;;;;;;;5.97;2.10;;;;;;;15.74;49.77;98945.97;4916285;29;20208;-91
2022/01/04 09:44:02;;;;;;;4.07;1.97;;;;;;;15.69;49.12;98937.56;4928726;29;20270;-91
2022/01/04 09:46:28;;;;;;;10.07;3.87;;;;;;;15.86;49.80;98935.28;4928410;29;20211;-90
2022/01/04 09:48:54;;;;;;;6.70;2.53;;;;;;;15.93;49.88;98941.78;4920735;29;20224;-93
2022/01/04 09:51:20;;;;;;;8.20;2.53;;;;;;;16.07;49.79;98924.84;4920692;29;20661;-94
2022/01/04 09:54:08;;;;;;;11.37;5.43;;;;;;;16.01;49.57;98909.47;4926474;29;20193;-94
2022/01/04 09:56:35;;;;;;;7.37;3.00;;;;;;;16.06;49.28;98904.69;4932479;29;20561;-94
2022/01/04 09:59:00;;;;;;;5.10;2.20;;;;;;;15.88;49.55;98911.38;4943490;29;20210;-93
2022/01/04 10:01:39;;;;;;;5.07;2.37;;;;;;;16.01;50.09;98909.47;4943723;29;20640;-95
2022/01/04 10:04:05;;;;;;;5.43;2.70;;;;;;;16.32;50.03;98892.03;4921392;29;20177;-94
2022/01/04 10:06:32;;;;;;;7.47;2.60;;;;;;;16.51;49.62;98901.00;4937211;29;20217;-94
2022/01/04 10:09:06;;;;;;;7.10;3.07;;;;;;;16.63;48.72;98893.09;4922592;29;20636;-93
2022/01/04 10:11:37;;;;;;;6.50;2.57;;;;;;;16.66;48.72;98883.09;4912837;29;20247;-93
2022/01/04 10:14:23;;;;;;;7.33;3.07;;;;;;;16.47;48.84;98880.22;4920326;29;20186;-93
2022/01/04 10:16:54;;;;;;;5.07;2.33;;;;;;;16.49;49.97;98873.00;4921251;29;20234;-94
2022/01/04 10:19:34;;;;;;;4.70;2.17;;;;;;;16.84;48.90;98870.16;4934750;29;20197;-93
2022/01/04 10:22:31;;;;;;;4.37;2.10;;;;;;;17.15;48.16;98856.06;4923878;29;20629;-91
2022/01/04 10:25:03;;;;;;;4.97;1.97;;;;;;;17.24;47.65;98852.66;4927845;29;20197;-93
2022/01/04 10:27:30;;;;;;;3.60;2.20;;;;;;;17.61;47.12;98845.91;4913398;29;20205;-92
2022/01/04 10:30:28;;;;;;;5.73;2.63;;;;;;;17.86;46.28;98841.16;4929742;29;20193;-94
2022/01/04 10:33:20;;;;;;;5.23;2.40;;;;;;;17.97;46.03;98846.38;4937954;29;20189;-91
2022/01/04 10:35:48;;;;;;;6.90;2.47;;;;;;;17.94;45.61;98841.31;4956616;29;20177;-94
2022/01/04 10:38:46;;;;;;;4.10;2.00;;;;;;;17.76;45.14;98833.16;4921277;29;20199;-91
2022/01/04 10:41:26;;;;;;;3.37;1.77;;;;;;;17.98;45.64;98821.50;4893249;29;20233;-92
2022/01/04 10:44:03;;;;;;;6.60;1.87;;;;;;;18.15;44.72;98819.06;4919283;29;20174;-94
2022/01/04 10:46:53;;;;;;;3.57;1.70;;;;;;;18.04;44.29;98813.03;4936563;29;20214;-92
2022/01/04 10:49:21;;;;;;;4.50;1.97;;;;;;;18.10;44.77;98812.50;4935045;29;20178;-93
2022/01/04 10:52:31;;;;;;;6.40;2.37;;;;;;;18.26;44.93;98815.47;4949491;29;20197;-93
2022/01/04 10:55:12;;;;;;;7.00;3.00;;;;;;;18.34;44.02;98805.00;4896508;29;20198;-92
2022/01/04 10:57:39;;;;;;;7.70;3.07;;;;;;;18.39;44.50;98802.78;4882667;29;20730;-91
2022/01/04 11:00:15;;;;;;;4.03;1.70;;;;;;;18.42;44.09;98802.50;4926005;29;20233;-94
2022/01/04 11:02:41;;;;;;;5.00;2.40;;;;;;;18.41;44.06;98783.09;4937026;29;20231;-91
2022/01/04 11:05:21;;;;;;;2.70;1.60;;;;;;;18.61;44.63;98785.75;4918856;29;20740;-92
2022/01/04 11:08:05;;;;;;;4.60;2.00;;;;;;;18.66;44.60;98780.88;4917462;29;20649;-92
2022/01/04 11:10:35;;;;;;;7.87;2.80;;;;;;;18.72;44.90;98769.69;4943398;29;20257;-92
2022/01/04 11:13:02;;;;;;;2.83;1.60;;;;;;;18.54;45.29;98766.91;4929846;29;20226;-93
2022/01/04 11:29:58;;;;;;;5.87;2.30;;;;;;;18.75;43.87;98719.81;4846161;29;20192;-93
2022/01/04 11:36:50;;;;;;;4.67;1.80;;;;;;;18.71;42.98;98721.06;4751484;30;20226;-94
2022/01/04 12:00:03;;;;;;;4.30;1.70;;;;;;;19.19;40.43;98704.19;4756977;30;20285;-94
2022/01/04 12:03:19;;;;;;;3.40;1.27;;;;;;;19.35;40.07;98696.44;4765612;30;20659;-92
2022/01/04 12:06:02;;;;;;;3.17;1.37;;;;;;;19.45;40.13;98689.28;4798680;29;20337;-94
2022/01/04 12:15:37;;;;;;;4.13;1.60;;;;;;;19.68;39.69;98684.44;4923700;29;20215;-93
2022/01/04 12:35:49;;;;;;;3.80;1.47;;;;;;;20.22;38.03;98655.06;4827398;29;20209;-93
2022/01/04 12:38:55;;;;;;;4.77;1.57;;;;;;;20.13;38.37;98651.47;4810624;29;20272;-94
2022/01/04 12:45:36;;;;;;;2.63;1.40;;;;;;;19.92;37.62;98650.94;4799235;29;20179;-94
2022/01/04 12:58:14;;;;;;;3.80;1.77;;;;;;;19.91;37.23;98635.16;4960553;29;20285;-94
2022/01/04 13:00:58;;;;;;;3.57;1.57;;;;;;;19.84;37.22;98634.91;4961347;29;20248;-92
2022/01/04 13:03:59;;;;;;;3.37;0.97;;;;;;;19.72;37.33;98638.78;4963288;29;20185;-93
2022/01/04 13:06:33;;;;;;;3.20;1.40;;;;;;;19.71;36.80;98630.94;4965910;29;20208;-92
2022/01/04 13:09:24;;;;;;;4.27;1.70;;;;;;;19.80;37.16;98630.88;4963189;28;20180;-94
2022/01/04 13:12:01;;;;;;;2.60;1.23;;;;;;;19.34;36.86;98628.34;4959529;28;20177;-93
2022/01/04 13:15:13;;;;;;;3.23;1.30;;;;;;;19.12;37.42;98629.56;4964944;29;20169;-93
2022/01/04 13:21:11;;;;;;;3.80;1.30;;;;;;;19.34;36.97;98628.34;4933465;29;20632;-87
2022/01/04 13:23:41;;;;;;;3.53;1.43;;;;;;;19.42;37.26;98620.47;4954898;29;20177;-86
2022/01/04 13:26:11;;;;;;;4.43;1.20;;;;;;;19.26;37.52;98621.06;4955075;29;20187;-89
2022/01/04 13:28:41;;;;;;;1.77;1.03;;;;;;;19.44;37.20;98619.34;4955228;29;20181;-89
2022/01/04 13:31:19;;;;;;;4.30;1.30;;;;;;;19.25;37.44;98618.59;4955211;29;20181;-89
2022/01/04 13:33:53;;;;;;;4.57;1.30;;;;;;;19.15;37.82;98615.13;4955955;29;20180;-89
2022/01/04 13:36:28;;;;;;;1.93;1.00;;;;;;;19.03;37.54;98612.66;4938997;29;20181;-90